Time;durP1;ratioP1;P1;durP2;ratioP2;P2;SDS_P1;SDS_P2;PMS_P1;PMS_P2;Temp;Humidity;BMP_temperature;BMP_pressure;BME280_temperature;BME280_humidity;BME280_pressure;Samples;Min_cycle;Max_cycle;Signal;HPM_P1;HPM_P2
2021/09/08 00:00:02;;;;;;;11.70;9.35;;;17.90;99.90;;;;;;5072591;28;20206;-73
2021/09/08 00:02:30;;;;;;;12.23;8.43;;;17.90;99.90;;;;;;5072412;28;20199;-73
2021/09/08 00:04:57;;;;;;;11.05;8.60;;;17.90;99.90;;;;;;5072066;28;20309;-72
2021/09/08 00:07:24;;;;;;;14.10;9.15;;;17.90;99.90;;;;;;5072342;28;20276;-73
2021/09/08 00:09:51;;;;;;;12.98;9.63;;;17.90;99.90;;;;;;5072357;28;20576;-73
2021/09/08 00:12:18;;;;;;;11.00;9.70;;;17.90;99.90;;;;;;5072311;28;20221;-73
2021/09/08 00:14:45;;;;;;;13.90;9.25;;;17.90;99.90;;;;;;5072179;28;20636;-71
2021/09/08 00:17:11;;;;;;;13.25;10.15;;;17.90;99.90;;;;;;5072634;28;20245;-72
2021/09/08 00:19:40;;;;;;;11.10;8.57;;;17.80;99.90;;;;;;5072310;28;20211;-73
2021/09/08 00:22:07;;;;;;;11.55;9.43;;;17.80;99.90;;;;;;5072280;28;20199;-74
2021/09/08 00:24:33;;;;;;;12.63;9.55;;;17.80;99.90;;;;;;5070767;28;20580;-73
2021/09/08 00:27:04;;;;;;;10.73;8.88;;;17.70;99.90;;;;;;5071910;28;20209;-73
2021/09/08 00:29:31;;;;;;;13.00;9.82;;;17.70;99.90;;;;;;5072219;28;20205;-73
2021/09/08 00:31:57;;;;;;;12.73;10.45;;;17.70;99.90;;;;;;5072551;28;20310;-72
2021/09/08 00:34:24;;;;;;;13.35;9.27;;;17.60;99.90;;;;;;5071746;28;20779;-72
2021/09/08 00:36:52;;;;;;;15.82;11.32;;;17.50;99.90;;;;;;5071746;28;20293;-71
2021/09/08 00:39:20;;;;;;;14.82;9.90;;;17.40;99.90;;;;;;5071770;28;20234;-72
2021/09/08 00:41:47;;;;;;;14.00;10.23;;;17.30;99.90;;;;;;5072376;28;20297;-72
2021/09/08 00:44:15;;;;;;;13.98;10.43;;;17.30;99.90;;;;;;5070439;28;20206;-72
2021/09/08 00:46:43;;;;;;;12.43;9.55;;;17.20;99.90;;;;;;5071961;28;20597;-72
2021/09/08 00:49:10;;;;;;;13.88;10.27;;;17.20;99.90;;;;;;5071865;28;20211;-73
2021/09/08 00:51:38;;;;;;;12.05;9.10;;;17.20;99.90;;;;;;5072970;28;20243;-74
2021/09/08 00:54:11;;;;;;;12.40;9.00;;;17.30;99.90;;;;;;5075408;28;20210;-73
2021/09/08 00:56:40;;;;;;;13.13;9.23;;;17.30;99.90;;;;;;5075602;28;20577;-72
2021/09/08 00:59:07;;;;;;;13.05;9.50;;;17.30;99.90;;;;;;5075595;28;20576;-72
2021/09/08 01:01:34;;;;;;;13.80;9.20;;;17.30;99.90;;;;;;5076179;28;20563;-73
2021/09/08 01:04:01;;;;;;;12.57;10.10;;;17.20;99.90;;;;;;5075453;28;20293;-73
2021/09/08 01:06:28;;;;;;;13.07;9.95;;;17.20;99.90;;;;;;5075150;28;20242;-73
2021/09/08 01:08:55;;;;;;;12.75;9.15;;;17.10;99.90;;;;;;5075501;28;20214;-73
2021/09/08 01:11:23;;;;;;;14.82;10.00;;;17.00;99.90;;;;;;5075543;28;20228;-72
2021/09/08 01:13:50;;;;;;;12.05;9.68;;;17.10;99.90;;;;;;5075244;28;20206;-72
2021/09/08 01:16:17;;;;;;;11.95;9.80;;;17.10;99.90;;;;;;5075073;28;20602;-73
2021/09/08 01:18:45;;;;;;;10.88;8.77;;;17.10;99.90;;;;;;5075252;28;20213;-73
2021/09/08 01:21:12;;;;;;;11.77;9.30;;;17.10;99.90;;;;;;5075727;28;20294;-72
2021/09/08 01:23:41;;;;;;;10.75;9.25;;;17.10;99.90;;;;;;5075170;28;20300;-73
2021/09/08 01:26:09;;;;;;;12.80;8.85;;;17.10;99.90;;;;;;5074791;28;20218;-72
2021/09/08 01:28:36;;;;;;;11.48;9.27;;;17.10;99.90;;;;;;5075557;28;20256;-72
2021/09/08 01:31:05;;;;;;;14.23;10.45;;;17.00;99.90;;;;;;5075437;28;20207;-73
2021/09/08 01:33:34;;;;;;;11.57;9.63;;;16.90;99.90;;;;;;5076342;28;20707;-71
2021/09/08 01:36:01;;;;;;;13.07;9.50;;;16.90;99.90;;;;;;5075847;28;20719;-71
2021/09/08 01:38:27;;;;;;;11.20;9.35;;;16.90;99.90;;;;;;5076277;28;20289;-71
2021/09/08 01:40:56;;;;;;;11.75;9.23;;;17.00;99.90;;;;;;5075915;28;20224;-71
2021/09/08 01:43:24;;;;;;;13.65;10.07;;;16.90;99.90;;;;;;5076152;28;20205;-71
2021/09/08 01:45:51;;;;;;;13.85;10.45;;;16.80;99.90;;;;;;5075731;28;20230;-71
2021/09/08 01:48:18;;;;;;;13.13;10.65;;;16.80;99.90;;;;;;5076056;28;20293;-71
2021/09/08 01:50:45;;;;;;;12.05;9.40;;;16.90;99.90;;;;;;5076038;28;20208;-71
2021/09/08 01:53:12;;;;;;;14.57;10.30;;;16.90;99.90;;;;;;5075909;28;20236;-71
2021/09/08 01:55:39;;;;;;;13.30;10.35;;;16.80;99.90;;;;;;5075435;28;20230;-71
2021/09/08 01:58:07;;;;;;;12.57;10.00;;;16.90;99.90;;;;;;5075787;28;20207;-71
2021/09/08 02:00:34;;;;;;;12.90;9.75;;;16.90;99.90;;;;;;5075765;28;20201;-71
2021/09/08 02:03:01;;;;;;;14.30;9.70;;;16.90;99.90;;;;;;5074700;28;20287;-71
2021/09/08 02:05:28;;;;;;;14.90;9.90;;;16.90;99.90;;;;;;5075567;28;20310;-71
2021/09/08 02:07:55;;;;;;;15.25;10.07;;;16.90;99.90;;;;;;5075423;28;20244;-71
2021/09/08 02:10:22;;;;;;;13.43;9.85;;;16.70;99.90;;;;;;5075560;28;20234;-71
2021/09/08 02:12:49;;;;;;;13.32;9.60;;;16.70;99.90;;;;;;5075450;28;20226;-71
2021/09/08 02:15:17;;;;;;;12.55;9.10;;;16.70;99.90;;;;;;5075346;28;20222;-71
2021/09/08 02:17:44;;;;;;;14.18;10.52;;;16.70;99.90;;;;;;5075536;28;20217;-71
2021/09/08 02:20:11;;;;;;;12.07;8.90;;;16.60;99.90;;;;;;5075745;28;20206;-71
2021/09/08 02:22:38;;;;;;;15.07;10.30;;;16.50;99.90;;;;;;5075422;28;20293;-71
2021/09/08 02:25:06;;;;;;;14.25;10.10;;;16.50;99.90;;;;;;5074925;28;20223;-71
2021/09/08 02:27:33;;;;;;;13.20;9.90;;;16.50;99.90;;;;;;5075321;28;20206;-71
2021/09/08 02:30:00;;;;;;;13.85;10.35;;;16.50;99.90;;;;;;5074988;28;20301;-71
2021/09/08 02:32:28;;;;;;;15.80;10.45;;;16.50;99.90;;;;;;5075176;28;20765;-71
2021/09/08 02:34:55;;;;;;;14.18;10.15;;;16.50;99.90;;;;;;5074937;28;20645;-71
2021/09/08 02:37:22;;;;;;;12.05;9.70;;;16.50;99.90;;;;;;5075135;28;20248;-71
2021/09/08 02:39:48;;;;;;;14.57;9.63;;;16.40;99.90;;;;;;5075066;28;20297;-71
2021/09/08 02:42:16;;;;;;;13.05;10.27;;;16.40;99.90;;;;;;5074910;28;20236;-71
2021/09/08 02:44:43;;;;;;;14.15;10.38;;;16.40;99.90;;;;;;5075016;28;20221;-72
2021/09/08 02:47:12;;;;;;;12.02;9.48;;;16.30;99.90;;;;;;5074718;28;20206;-71
2021/09/08 02:49:40;;;;;;;13.73;10.30;;;16.30;99.90;;;;;;5074723;28;20680;-71
2021/09/08 02:52:07;;;;;;;12.40;9.70;;;16.40;99.90;;;;;;5074655;28;20232;-71
2021/09/08 02:54:33;;;;;;;15.15;10.10;;;16.40;99.90;;;;;;5074692;28;20225;-71
2021/09/08 02:57:00;;;;;;;13.38;9.55;;;16.40;99.90;;;;;;5074299;28;20665;-70
2021/09/08 02:59:27;;;;;;;11.40;8.82;;;16.30;99.90;;;;;;5074822;28;20205;-71
2021/09/08 03:01:54;;;;;;;14.18;10.05;;;16.40;99.90;;;;;;5074649;28;20237;-71
2021/09/08 03:04:21;;;;;;;12.80;10.30;;;16.40;99.90;;;;;;5074596;28;20729;-71
2021/09/08 03:06:49;;;;;;;13.77;9.68;;;16.40;99.90;;;;;;5074343;28;20209;-71
2021/09/08 03:09:16;;;;;;;13.25;9.65;;;16.40;99.90;;;;;;5074487;28;20228;-71
2021/09/08 03:11:43;;;;;;;11.18;9.25;;;16.30;99.90;;;;;;5074373;28;20206;-71
2021/09/08 03:14:10;;;;;;;14.60;10.57;;;16.30;99.90;;;;;;5073857;28;20750;-71
2021/09/08 03:16:37;;;;;;;12.95;10.23;;;16.30;99.90;;;;;;5074057;28;20659;-71
2021/09/08 03:19:04;;;;;;;14.00;9.65;;;16.30;99.90;;;;;;5074546;28;20212;-71
2021/09/08 03:21:31;;;;;;;12.18;9.38;;;16.20;99.90;;;;;;5074391;28;20277;-71
2021/09/08 03:23:59;;;;;;;12.70;9.38;;;16.20;99.90;;;;;;5074151;28;20703;-71
2021/09/08 03:26:26;;;;;;;12.73;9.55;;;16.20;99.90;;;;;;5073944;28;20226;-71
2021/09/08 03:28:52;;;;;;;12.27;9.38;;;16.20;99.90;;;;;;5073904;28;20690;-71
2021/09/08 03:31:19;;;;;;;11.82;9.35;;;16.10;99.90;;;;;;5074075;28;20209;-71
2021/09/08 03:33:46;;;;;;;11.68;10.13;;;16.10;99.90;;;;;;5073969;28;20218;-71
2021/09/08 03:36:13;;;;;;;17.80;10.52;;;16.00;99.90;;;;;;5073702;28;20251;-71
2021/09/08 03:38:40;;;;;;;12.45;9.90;;;16.00;99.90;;;;;;5073971;28;20644;-71
2021/09/08 03:41:08;;;;;;;14.85;10.75;;;16.00;99.90;;;;;;5073906;28;20576;-71
2021/09/08 03:43:34;;;;;;;12.05;9.68;;;15.90;99.90;;;;;;5073732;28;20293;-71
2021/09/08 03:46:04;;;;;;;14.70;10.38;;;15.90;99.90;;;;;;5073708;28;20225;-71
2021/09/08 03:48:31;;;;;;;14.18;10.43;;;15.90;99.90;;;;;;5073870;28;20231;-71
2021/09/08 03:50:58;;;;;;;11.95;9.40;;;15.90;99.90;;;;;;5073764;28;20215;-71
2021/09/08 03:53:25;;;;;;;13.00;10.20;;;16.00;99.90;;;;;;5073712;28;20247;-71
2021/09/08 03:55:52;;;;;;;14.80;10.57;;;16.00;99.90;;;;;;5073505;28;20311;-71
2021/09/08 03:58:20;;;;;;;13.73;11.15;;;16.00;99.90;;;;;;5073724;28;20281;-71
2021/09/08 04:00:47;;;;;;;11.57;8.60;;;15.90;99.90;;;;;;5073602;28;20217;-71
2021/09/08 04:03:14;;;;;;;13.85;9.82;;;15.90;99.90;;;;;;5073798;28;20234;-71
2021/09/08 04:05:41;;;;;;;14.15;10.15;;;15.80;99.90;;;;;;5073167;28;20779;-71
2021/09/08 04:08:07;;;;;;;13.27;9.70;;;15.90;99.90;;;;;;5073613;28;20296;-71
2021/09/08 04:10:34;;;;;;;14.48;10.15;;;15.80;99.90;;;;;;5073745;28;20213;-71
2021/09/08 04:13:01;;;;;;;14.55;10.48;;;15.90;99.90;;;;;;5073527;28;20225;-70
2021/09/08 04:15:29;;;;;;;11.48;9.38;;;15.90;99.90;;;;;;5073280;28;20300;-71
2021/09/08 04:17:56;;;;;;;14.30;10.05;;;15.90;99.90;;;;;;5073492;28;20319;-71
2021/09/08 04:20:24;;;;;;;12.70;8.95;;;15.90;99.90;;;;;;5073489;28;20205;-71
2021/09/08 04:22:51;;;;;;;16.10;10.65;;;15.90;99.90;;;;;;5073470;28;20210;-71
2021/09/08 04:25:18;;;;;;;14.45;10.32;;;15.80;99.90;;;;;;5073295;28;20312;-71
2021/09/08 04:27:45;;;;;;;13.32;10.00;;;15.60;99.90;;;;;;5076616;28;20292;-71
2021/09/08 04:30:12;;;;;;;14.30;10.00;;;15.50;99.90;;;;;;5077779;28;20204;-71
2021/09/08 04:32:40;;;;;;;15.68;10.43;;;15.50;99.90;;;;;;5077343;28;20320;-71
2021/09/08 04:35:09;;;;;;;13.25;9.45;;;15.50;99.90;;;;;;5077274;28;20225;-70
2021/09/08 04:37:37;;;;;;;12.95;10.10;;;15.50;99.90;;;;;;5077420;28;20201;-71
2021/09/08 04:40:05;;;;;;;13.95;10.15;;;15.60;99.90;;;;;;5077365;28;20547;-71
2021/09/08 04:42:32;;;;;;;15.20;9.40;;;15.60;99.90;;;;;;5077395;28;20571;-71
2021/09/08 04:44:59;;;;;;;14.52;10.90;;;15.70;99.90;;;;;;5076873;28;20226;-70
2021/09/08 04:47:25;;;;;;;14.73;10.50;;;15.50;99.90;;;;;;5076967;28;20226;-71
2021/09/08 04:49:53;;;;;;;13.18;10.75;;;15.30;99.90;;;;;;5077174;28;20215;-71
2021/09/08 04:52:20;;;;;;;16.60;11.30;;;15.40;99.90;;;;;;5077057;28;20295;-71
2021/09/08 04:54:47;;;;;;;13.98;10.23;;;15.40;99.90;;;;;;5076842;28;20225;-71
2021/09/08 04:57:14;;;;;;;15.18;10.73;;;15.40;99.90;;;;;;5076963;28;20216;-71
2021/09/08 04:59:41;;;;;;;13.82;11.10;;;15.50;99.90;;;;;;5076905;28;20217;-71
2021/09/08 05:02:07;;;;;;;14.57;10.60;;;15.50;99.90;;;;;;5076900;28;20300;-71
2021/09/08 05:04:34;;;;;;;13.90;10.40;;;15.50;99.90;;;;;;5076734;28;20221;-71
2021/09/08 05:07:03;;;;;;;16.63;10.88;;;15.50;99.90;;;;;;5076492;28;20213;-71
2021/09/08 05:09:30;;;;;;;14.43;9.90;;;15.50;99.90;;;;;;5076658;28;20732;-71
2021/09/08 05:11:56;;;;;;;17.17;11.18;;;15.60;99.90;;;;;;5076668;28;20254;-71
2021/09/08 05:14:23;;;;;;;15.57;10.85;;;15.50;99.90;;;;;;5076971;28;20237;-71
2021/09/08 05:16:50;;;;;;;17.15;11.85;;;15.50;99.90;;;;;;5076540;28;20622;-71
2021/09/08 05:19:17;;;;;;;15.77;11.27;;;15.50;99.90;;;;;;5076597;28;20235;-71
2021/09/08 05:21:44;;;;;;;14.80;10.88;;;15.60;99.90;;;;;;5076560;28;20206;-71
2021/09/08 05:24:12;;;;;;;17.38;12.07;;;15.60;99.90;;;;;;5076444;28;20640;-71
2021/09/08 05:26:39;;;;;;;16.20;10.88;;;15.60;99.90;;;;;;5076016;28;20204;-71
2021/09/08 05:29:06;;;;;;;13.70;10.80;;;15.50;99.90;;;;;;5077095;28;20210;-71
2021/09/08 05:31:33;;;;;;;14.43;9.77;;;15.50;99.90;;;;;;5076211;28;20677;-71
2021/09/08 05:34:00;;;;;;;14.10;10.82;;;15.50;99.90;;;;;;5076277;28;20225;-72
2021/09/08 05:36:27;;;;;;;12.27;8.82;;;15.50;99.90;;;;;;5075922;28;20316;-71
2021/09/08 05:38:53;;;;;;;14.10;9.63;;;15.60;99.90;;;;;;5076157;28;20300;-72
2021/09/08 05:41:22;;;;;;;16.05;10.52;;;15.60;99.90;;;;;;5075932;28;20332;-71
2021/09/08 05:43:48;;;;;;;14.07;9.88;;;15.60;99.90;;;;;;5076199;28;20206;-71
2021/09/08 05:46:15;;;;;;;15.10;11.25;;;15.60;99.90;;;;;;5075899;28;20231;-71
2021/09/08 05:48:43;;;;;;;13.60;11.02;;;15.50;99.90;;;;;;5075935;28;20225;-71
2021/09/08 05:51:10;;;;;;;13.82;10.43;;;15.50;99.90;;;;;;5076038;28;20668;-71
2021/09/08 05:53:37;;;;;;;13.57;10.10;;;15.50;99.90;;;;;;5075894;28;20309;-71
2021/09/08 05:56:04;;;;;;;19.02;12.45;;;15.50;99.90;;;;;;5075443;28;20229;-71
2021/09/08 05:58:33;;;;;;;17.35;10.75;;;15.50;99.90;;;;;;5075911;28;20625;-72
2021/09/08 06:00:59;;;;;;;17.83;11.52;;;15.50;99.90;;;;;;5075870;28;20204;-72
2021/09/08 06:03:26;;;;;;;15.10;11.27;;;15.60;99.90;;;;;;5075710;28;20203;-71
2021/09/08 06:05:53;;;;;;;14.88;11.25;;;15.50;99.90;;;;;;5075542;28;20225;-71
2021/09/08 06:08:20;;;;;;;14.50;11.13;;;15.60;99.90;;;;;;5075682;28;20205;-71
2021/09/08 06:10:47;;;;;;;15.68;11.57;;;15.60;99.90;;;;;;5075736;28;20205;-71
2021/09/08 06:13:14;;;;;;;15.75;11.60;;;15.60;99.90;;;;;;5075598;28;20320;-72
2021/09/08 06:15:42;;;;;;;17.40;11.85;;;15.40;99.90;;;;;;5075426;28;20240;-70
2021/09/08 06:18:10;;;;;;;15.43;11.13;;;15.30;99.90;;;;;;5075577;28;20211;-71
2021/09/08 06:20:36;;;;;;;18.27;11.73;;;15.20;99.90;;;;;;5075486;28;20240;-71
2021/09/08 06:23:03;;;;;;;14.18;11.02;;;15.40;99.90;;;;;;5075382;28;20654;-71
2021/09/08 06:25:30;;;;;;;15.07;11.07;;;15.40;99.90;;;;;;5074940;28;20225;-70
2021/09/08 06:27:57;;;;;;;18.55;12.98;;;15.50;99.90;;;;;;5075140;28;20685;-71
2021/09/08 06:30:24;;;;;;;19.02;12.65;;;15.60;99.90;;;;;;5075330;28;20635;-71
2021/09/08 06:32:52;;;;;;;16.08;11.07;;;15.70;99.90;;;;;;5075200;28;20204;-71
2021/09/08 06:35:19;;;;;;;15.05;11.50;;;15.80;99.90;;;;;;5074890;28;20312;-71
2021/09/08 06:37:46;;;;;;;15.65;11.80;;;15.80;99.90;;;;;;5075104;28;20205;-71
2021/09/08 06:40:15;;;;;;;18.10;13.30;;;15.90;99.90;;;;;;5075012;28;20300;-72
2021/09/08 06:42:42;;;;;;;16.50;12.52;;;15.90;99.90;;;;;;5074908;28;20711;-71
2021/09/08 06:45:10;;;;;;;17.63;12.63;;;16.00;99.90;;;;;;5074689;28;20592;-71
2021/09/08 06:47:37;;;;;;;17.80;12.98;;;16.10;99.90;;;;;;5075169;28;20297;-71
2021/09/08 06:50:07;;;;;;;18.45;13.02;;;16.10;99.90;;;;;;5074032;28;20241;-71
2021/09/08 06:52:34;;;;;;;19.13;13.20;;;16.10;99.90;;;;;;5074676;28;20296;-71
2021/09/08 06:55:01;;;;;;;19.73;13.70;;;16.10;99.90;;;;;;5074791;28;20240;-70
2021/09/08 06:57:28;;;;;;;17.90;13.57;;;16.10;99.90;;;;;;5074601;28;20298;-71
2021/09/08 06:59:55;;;;;;;20.85;14.23;;;16.20;99.90;;;;;;5074716;28;20213;-71
2021/09/08 07:02:22;;;;;;;20.25;14.70;;;16.20;99.90;;;;;;5074685;28;20612;-71
2021/09/08 07:04:48;;;;;;;24.92;15.98;;;16.30;99.90;;;;;;5074271;28;20225;-71
2021/09/08 07:07:20;;;;;;;23.67;16.45;;;16.40;99.90;;;;;;5074591;28;20200;-71
2021/09/08 07:09:47;;;;;;;22.70;15.70;;;16.20;99.90;;;;;;5074358;28;20199;-71
2021/09/08 07:12:14;;;;;;;19.55;14.80;;;16.30;99.90;;;;;;5074437;28;20297;-71
2021/09/08 07:14:40;;;;;;;19.30;13.70;;;16.30;99.90;;;;;;5074271;28;20234;-71
2021/09/08 07:17:07;;;;;;;25.02;14.75;;;16.40;99.90;;;;;;5074154;28;20312;-71
2021/09/08 07:19:34;;;;;;;20.42;14.30;;;16.50;99.90;;;;;;5074061;28;20202;-71
2021/09/08 07:22:01;;;;;;;19.38;13.75;;;16.40;99.90;;;;;;5074268;28;20209;-71
2021/09/08 07:24:30;;;;;;;18.33;13.02;;;16.50;99.90;;;;;;5074173;28;20225;-71
2021/09/08 07:26:57;;;;;;;16.92;13.05;;;16.50;99.90;;;;;;5074009;28;20211;-71
2021/09/08 07:29:24;;;;;;;18.33;12.20;;;16.40;99.90;;;;;;5074141;28;20575;-71
2021/09/08 07:31:52;;;;;;;17.77;12.23;;;16.50;99.90;;;;;;5074028;28;20213;-71
2021/09/08 07:34:18;;;;;;;17.95;11.93;;;16.60;99.90;;;;;;5073952;28;20227;-71
2021/09/08 07:36:45;;;;;;;18.85;13.50;;;16.70;99.90;;;;;;5073900;28;20622;-71
2021/09/08 07:39:12;;;;;;;16.95;11.40;;;16.70;99.90;;;;;;5074008;28;20212;-72
2021/09/08 07:41:40;;;;;;;15.80;12.05;;;16.80;99.90;;;;;;5076071;28;20217;-72
2021/09/08 07:44:07;;;;;;;16.67;12.07;;;16.90;99.90;;;;;;5078162;28;20643;-72
2021/09/08 07:46:34;;;;;;;18.02;12.05;;;17.00;99.90;;;;;;5072825;28;20569;-74
2021/09/08 07:49:02;;;;;;;15.55;11.82;;;17.10;99.90;;;;;;5072710;28;20210;-74
2021/09/08 07:51:29;;;;;;;16.58;11.90;;;17.20;99.90;;;;;;5072877;28;20202;-73
2021/09/08 07:53:56;;;;;;;16.63;11.90;;;17.20;99.90;;;;;;5072865;28;20222;-73
2021/09/08 07:56:23;;;;;;;15.40;11.45;;;17.30;99.90;;;;;;5072868;28;20226;-72
2021/09/08 07:58:51;;;;;;;16.17;10.85;;;17.30;99.90;;;;;;5073654;28;20688;-72
2021/09/08 08:01:18;;;;;;;13.77;10.68;;;17.40;99.90;;;;;;5072865;28;20206;-72
2021/09/08 08:03:45;;;;;;;14.50;10.45;;;17.50;99.90;;;;;;5073531;28;20209;-72
2021/09/08 08:06:12;;;;;;;14.98;10.82;;;17.60;99.90;;;;;;5073323;28;20233;-72
2021/09/08 08:08:38;;;;;;;13.77;9.63;;;17.60;99.90;;;;;;5073649;28;20225;-72
2021/09/08 08:11:05;;;;;;;12.57;10.05;;;17.60;99.90;;;;;;5073826;28;20683;-72
2021/09/08 08:13:32;;;;;;;11.50;9.15;;;17.60;99.90;;;;;;5073444;28;20222;-72
2021/09/08 08:16:00;;;;;;;11.93;9.45;;;17.70;99.90;;;;;;5073344;28;20261;-71
2021/09/08 08:18:27;;;;;;;12.93;9.80;;;17.80;99.90;;;;;;5073354;28;20756;-72
2021/09/08 08:20:55;;;;;;;10.00;8.90;;;17.80;99.90;;;;;;5073521;28;20203;-72
2021/09/08 08:23:22;;;;;;;10.70;8.50;;;17.80;99.90;;;;;;5073337;28;20264;-72
2021/09/08 08:25:49;;;;;;;12.65;8.95;;;17.90;99.90;;;;;;5073094;28;20223;-72
2021/09/08 08:28:16;;;;;;;9.70;8.10;;;17.90;99.90;;;;;;5073152;28;20286;-71
2021/09/08 08:30:43;;;;;;;13.05;9.27;;;18.00;99.90;;;;;;5073688;28;20206;-71
2021/09/08 08:33:11;;;;;;;10.90;8.02;;;18.00;99.90;;;;;;5073388;28;20305;-71
2021/09/08 08:35:38;;;;;;;14.27;9.80;;;18.00;99.90;;;;;;5072985;28;20313;-71
2021/09/08 08:38:05;;;;;;;12.30;8.95;;;18.10;99.90;;;;;;5073338;28;20209;-71
2021/09/08 08:40:32;;;;;;;11.48;8.40;;;18.10;99.90;;;;;;5073158;28;20668;-72
2021/09/08 08:43:00;;;;;;;11.63;8.57;;;18.20;99.90;;;;;;5073382;28;20217;-71
2021/09/08 08:45:28;;;;;;;10.82;8.00;;;18.30;99.90;;;;;;5073117;28;20219;-71
2021/09/08 08:47:55;;;;;;;13.18;9.25;;;18.50;99.90;;;;;;5073121;28;20583;-71
2021/09/08 08:50:26;;;;;;;12.65;9.02;;;18.50;99.90;;;;;;5073220;28;20214;-71
2021/09/08 08:52:53;;;;;;;10.50;8.10;;;18.70;99.90;;;;;;5073181;28;20203;-71
2021/09/08 08:55:20;;;;;;;12.60;9.00;;;18.80;99.90;;;;;;5072803;28;20234;-71
2021/09/08 08:57:49;;;;;;;11.02;8.95;;;18.90;99.90;;;;;;5073176;28;20530;-71
2021/09/08 09:00:17;;;;;;;9.70;7.93;;;19.00;99.90;;;;;;5072982;28;20673;-71
2021/09/08 09:02:47;;;;;;;10.40;7.85;;;19.20;99.90;;;;;;5073001;28;20532;-71
2021/09/08 09:05:31;;;;;;;9.83;7.80;;;19.40;99.90;;;;;;5072739;28;20219;-71
2021/09/08 09:07:59;;;;;;;10.03;8.27;;;19.50;99.90;;;;;;5073119;28;20442;-71
2021/09/08 09:10:25;;;;;;;10.30;8.10;;;19.70;99.90;;;;;;5072852;28;20439;-71
2021/09/08 09:12:53;;;;;;;8.73;7.83;;;19.90;99.90;;;;;;5074409;28;20795;-71
2021/09/08 09:15:21;;;;;;;10.13;8.57;;;20.10;99.90;;;;;;5076335;28;20572;-71
2021/09/08 09:17:49;;;;;;;9.80;8.20;;;20.10;99.90;;;;;;5076655;28;20875;-71
2021/09/08 09:20:17;;;;;;;11.10;7.97;;;20.10;99.90;;;;;;5076559;28;20453;-71
2021/09/08 09:22:47;;;;;;;10.23;8.23;;;20.20;99.90;;;;;;5076572;28;20440;-71
2021/09/08 09:25:16;;;;;;;9.43;8.00;;;20.30;99.90;;;;;;5076237;28;20465;-71
2021/09/08 09:27:46;;;;;;;8.57;6.70;;;20.40;99.90;;;;;;5076331;28;20956;-71
2021/09/08 09:30:15;;;;;;;11.93;6.90;;;20.40;99.90;;;;;;5076358;28;20938;-71
2021/09/08 09:32:44;;;;;;;9.57;7.90;;;20.50;99.90;;;;;;5076326;28;20526;-71
2021/09/08 09:35:13;;;;;;;10.07;8.00;;;20.70;99.90;;;;;;5076112;28;20844;-71
2021/09/08 09:37:47;;;;;;;9.07;7.37;;;20.90;99.90;;;;;;5076323;28;20865;-71
2021/09/08 09:40:15;;;;;;;11.23;7.27;;;21.10;99.90;;;;;;5076479;28;20451;-72
2021/09/08 09:42:44;;;;;;;8.27;6.73;;;21.20;99.90;;;;;;5076261;28;20451;-71
2021/09/08 09:45:12;;;;;;;8.50;7.47;;;21.30;99.90;;;;;;5075909;28;20464;-71
2021/09/08 09:47:42;;;;;;;8.47;6.83;;;21.50;99.90;;;;;;5076198;28;20445;-71
2021/09/08 09:50:12;;;;;;;6.67;5.80;;;22.70;99.90;;;;;;5076310;28;20445;-72
2021/09/08 09:52:39;;;;;;;7.10;6.27;;;24.30;97.70;;;;;;5075990;28;20441;-72
2021/09/08 09:55:08;;;;;;;6.43;5.60;;;26.00;91.90;;;;;;5075773;28;20489;-72
2021/09/08 09:57:35;;;;;;;7.13;6.40;;;27.70;86.00;;;;;;5075942;28;20447;-72
2021/09/08 10:00:04;;;;;;;7.00;6.30;;;29.50;78.80;;;;;;5075962;28;20441;-73
2021/09/08 10:02:30;;;;;;;6.83;6.20;;;30.00;72.80;;;;;;5075918;28;20437;-73
2021/09/08 10:04:59;;;;;;;7.60;6.83;;;30.50;67.60;;;;;;5075398;28;21037;-73
2021/09/08 10:07:27;;;;;;;8.03;6.63;;;30.00;64.40;;;;;;5075964;28;20445;-72
2021/09/08 10:09:59;;;;;;;7.63;6.83;;;29.80;66.50;;;;;;5075667;28;21013;-73
2021/09/08 10:12:33;;;;;;;7.10;6.50;;;29.70;64.40;;;;;;5075482;28;20951;-73
2021/09/08 10:15:03;;;;;;;6.90;6.10;;;29.50;67.50;;;;;;5075418;28;20569;-73
2021/09/08 10:17:34;;;;;;;6.23;5.63;;;29.20;67.80;;;;;;5075737;28;20532;-73
2021/09/08 10:20:05;;;;;;;7.47;6.70;;;29.10;67.10;;;;;;5075619;28;20443;-72
2021/09/08 10:22:32;;;;;;;7.00;6.20;;;29.70;66.60;;;;;;5075464;28;20440;-73
2021/09/08 10:25:09;;;;;;;7.70;6.27;;;30.40;63.40;;;;;;5074449;28;20466;-73
2021/09/08 10:27:38;;;;;;;6.60;5.93;;;31.30;60.90;;;;;;5075446;28;20447;-71
2021/09/08 10:30:06;;;;;;;7.13;6.43;;;32.30;59.50;;;;;;5075183;28;20957;-70
2021/09/08 10:32:33;;;;;;;7.33;6.63;;;32.80;58.60;;;;;;5075462;28;20437;-71
2021/09/08 10:35:00;;;;;;;7.13;6.53;;;33.20;56.70;;;;;;5074871;28;20494;-71
2021/09/08 10:37:27;;;;;;;7.30;6.60;;;33.30;56.90;;;;;;5074965;28;20949;-71
2021/09/08 10:39:55;;;;;;;7.07;6.47;;;32.80;55.50;;;;;;5075219;28;20451;-71
2021/09/08 10:45:21;;;;;;;7.30;6.60;;;32.80;55.80;;;;;;5091089;28;20522;-72
2021/09/08 10:47:48;;;;;;;6.97;6.30;;;32.00;54.50;;;;;;5091098;28;20457;-72
2021/09/08 10:50:15;;;;;;;6.87;6.23;;;31.90;54.00;;;;;;5091176;28;20526;-72
2021/09/08 10:52:49;;;;;;;7.50;6.63;;;31.20;55.10;;;;;;5091329;28;20869;-72
2021/09/08 10:55:24;;;;;;;7.50;6.80;;;30.50;55.00;;;;;;5090695;28;20546;-72
2021/09/08 10:58:01;;;;;;;7.27;6.53;;;29.80;57.80;;;;;;5090888;28;20443;-72
2021/09/08 11:00:34;;;;;;;7.03;6.33;;;29.20;59.60;;;;;;5090951;28;20486;-72
2021/09/08 11:03:00;;;;;;;7.47;6.77;;;28.80;60.10;;;;;;5090687;28;20942;-72
2021/09/08 11:05:27;;;;;;;7.40;6.70;;;29.00;60.10;;;;;;5090849;28;20468;-72
2021/09/08 11:07:54;;;;;;;13.17;11.20;;;29.70;62.00;;;;;;5090749;28;20869;-72
2021/09/08 11:10:27;;;;;;;6.40;5.80;;;30.70;60.70;;;;;;5090741;28;20438;-72
2021/09/08 11:12:55;;;;;;;6.73;6.03;;;31.20;56.90;;;;;;5090529;28;20439;-72
2021/09/08 11:15:33;;;;;;;6.20;5.63;;;32.10;56.80;;;;;;5090475;28;20460;-72
2021/09/08 11:18:01;;;;;;;6.93;6.23;;;32.80;55.20;;;;;;5090448;28;20922;-72
2021/09/08 11:20:28;;;;;;;6.27;5.67;;;33.80;54.00;;;;;;5090496;28;20796;-72
2021/09/08 11:23:03;;;;;;;10.00;6.20;;;33.30;51.60;;;;;;5090554;28;20439;-72
2021/09/08 11:25:31;;;;;;;7.23;6.30;;;33.70;51.30;;;;;;5090212;28;20471;-72
2021/09/08 11:27:58;;;;;;;6.77;6.17;;;34.00;48.80;;;;;;5090174;28;20475;-72
2021/09/08 11:30:32;;;;;;;6.90;6.20;;;34.70;49.00;;;;;;5090342;28;20440;-72
2021/09/08 11:33:01;;;;;;;7.13;6.53;;;34.70;49.90;;;;;;5090341;28;20807;-72
2021/09/08 11:35:40;;;;;;;6.70;6.10;;;34.80;48.10;;;;;;5089909;28;20464;-72
2021/09/08 11:38:14;;;;;;;7.13;6.53;;;34.80;46.70;;;;;;5090268;28;20455;-72
2021/09/08 11:40:42;;;;;;;7.30;6.60;;;34.30;46.50;;;;;;5090221;28;20440;-72
2021/09/08 11:43:09;;;;;;;6.20;5.60;;;33.80;48.60;;;;;;5089975;28;20865;-73
2021/09/08 11:45:38;;;;;;;6.47;5.87;;;33.40;50.10;;;;;;5089767;28;20905;-72
2021/09/08 11:48:06;;;;;;;6.43;5.83;;;33.20;48.80;;;;;;5090000;28;20451;-72
2021/09/08 11:50:32;;;;;;;7.17;6.57;;;32.30;52.00;;;;;;5090073;28;20916;-72
2021/09/08 11:53:02;;;;;;;7.10;6.30;;;31.70;54.40;;;;;;5090800;28;20440;-72
2021/09/08 11:55:33;;;;;;;7.20;6.60;;;31.00;55.60;;;;;;5082848;28;20564;-72
2021/09/08 11:58:18;;;;;;;6.43;5.63;;;30.40;56.50;;;;;;5076397;28;20445;-72
2021/09/08 12:00:56;;;;;;;7.77;6.97;;;29.80;55.10;;;;;;5076575;28;20530;-72
2021/09/08 12:03:23;;;;;;;5.87;5.37;;;28.90;55.60;;;;;;5076203;28;20437;-71
2021/09/08 12:05:51;;;;;;;6.40;5.80;;;28.50;57.70;;;;;;5076089;28;20553;-71
2021/09/08 12:08:20;;;;;;;7.17;6.47;;;28.40;58.60;;;;;;5076180;28;20799;-72
2021/09/08 12:10:47;;;;;;;10.83;7.90;;;28.20;59.80;;;;;;5076111;28;20443;-72
2021/09/08 12:13:27;;;;;;;6.50;5.90;;;28.10;59.90;;;;;;5076013;28;20451;-71
2021/09/08 12:15:56;;;;;;;7.10;6.40;;;28.00;63.60;;;;;;5075936;28;20456;-71
2021/09/08 12:18:23;;;;;;;6.43;5.90;;;28.00;64.90;;;;;;5076019;28;20524;-71
2021/09/08 12:20:50;;;;;;;6.77;5.93;;;27.80;62.70;;;;;;5076016;28;20870;-72
2021/09/08 12:23:24;;;;;;;5.57;5.00;;;27.70;63.50;;;;;;5075864;28;20441;-72
2021/09/08 12:26:09;;;;;;;6.07;5.57;;;27.80;61.80;;;;;;5075329;28;20527;-72
2021/09/08 12:28:36;;;;;;;5.60;5.10;;;27.80;60.30;;;;;;5075742;28;20538;-71
2021/09/08 12:31:21;;;;;;;6.23;5.63;;;27.90;60.50;;;;;;5075702;28;20441;-72
2021/09/08 12:34:00;;;;;;;5.83;5.23;;;27.90;59.60;;;;;;5075724;28;20491;-72
2021/09/08 12:36:30;;;;;;;7.30;5.80;;;28.00;58.60;;;;;;5075550;28;20465;-71
2021/09/08 12:39:12;;;;;;;5.90;5.33;;;28.00;58.70;;;;;;5075652;28;20536;-72
2021/09/08 12:41:51;;;;;;;6.23;5.30;;;28.00;60.10;;;;;;5075642;28;20444;-72